Time;durP1;ratioP1;P1;durP2;ratioP2;P2;SDS_P1;SDS_P2;PMS_P1;PMS_P2;Temp;Humidity;BMP_temperature;BMP_pressure;BME280_temperature;BME280_humidity;BME280_pressure;Samples;Min_cycle;Max_cycle;Signal;HPM_P1;HPM_P2
2022/12/06 00:00:44;;;;;;;143.80;89.38;;;;;;;;;;4936102;29;20024;-75
2022/12/06 00:03:10;;;;;;;116.55;73.53;;;;;;;;;;4943098;29;20022;-76
2022/12/06 00:05:36;;;;;;;115.95;73.55;;;;;;;;;;4941988;28;20062;-75
2022/12/06 00:08:02;;;;;;;117.78;72.50;;;;;;;;;;4935600;29;20019;-75
2022/12/06 00:10:28;;;;;;;123.68;75.78;;;;;;;;;;4947289;29;20491;-76
2022/12/06 00:12:55;;;;;;;121.25;75.30;;;;;;;;;;4954751;28;20532;-75
2022/12/06 00:15:21;;;;;;;105.05;66.25;;;;;;;;;;4955010;28;20377;-76
2022/12/06 00:17:47;;;;;;;121.07;73.00;;;;;;;;;;4954867;28;20028;-75
2022/12/06 00:20:13;;;;;;;125.03;77.30;;;;;;;;;;4954609;28;20054;-74
2022/12/06 00:22:43;;;;;;;143.00;85.88;;;;;;;;;;4954336;28;20035;-76
2022/12/06 00:25:09;;;;;;;146.40;93.65;;;;;;;;;;4954533;28;20023;-75
2022/12/06 00:27:35;;;;;;;130.65;83.40;;;;;;;;;;4954673;28;20082;-74
2022/12/06 00:30:01;;;;;;;120.22;75.43;;;;;;;;;;4958145;28;20095;-74
2022/12/06 00:32:27;;;;;;;107.40;71.20;;;;;;;;;;4958323;28;20118;-74
2022/12/06 00:34:53;;;;;;;109.85;70.90;;;;;;;;;;4944699;28;20015;-74
2022/12/06 00:37:19;;;;;;;127.13;78.60;;;;;;;;;;4950079;28;20027;-74
2022/12/06 00:39:45;;;;;;;110.97;72.95;;;;;;;;;;4953601;29;20019;-75
2022/12/06 00:42:11;;;;;;;93.25;59.67;;;;;;;;;;4958327;28;20126;-75
2022/12/06 00:44:37;;;;;;;96.85;62.38;;;;;;;;;;4945657;28;20020;-74
2022/12/06 00:47:03;;;;;;;89.63;58.05;;;;;;;;;;4957360;29;20027;-76
2022/12/06 00:49:29;;;;;;;83.40;57.15;;;;;;;;;;4958095;28;20027;-77
2022/12/06 00:51:55;;;;;;;77.78;53.58;;;;;;;;;;4958385;28;20031;-75
2022/12/06 00:54:22;;;;;;;80.85;55.45;;;;;;;;;;4957799;28;20374;-76
2022/12/06 00:56:48;;;;;;;77.88;52.92;;;;;;;;;;4957902;28;20033;-75
2022/12/06 00:59:14;;;;;;;77.57;53.03;;;;;;;;;;4944381;28;20024;-73
2022/12/06 01:01:40;;;;;;;81.13;51.22;;;;;;;;;;4947845;28;20127;-75
2022/12/06 01:04:08;;;;;;;73.43;49.35;;;;;;;;;;4953522;29;20031;-76
2022/12/06 01:06:34;;;;;;;71.93;48.20;;;;;;;;;;4957979;28;20107;-74
2022/12/06 01:09:03;;;;;;;78.90;52.85;;;;;;;;;;4957810;28;20075;-75
2022/12/06 01:11:29;;;;;;;84.65;55.28;;;;;;;;;;4957604;28;20094;-74
2022/12/06 01:13:55;;;;;;;88.80;57.42;;;;;;;;;;4957692;28;20034;-74
2022/12/06 01:16:23;;;;;;;82.07;52.90;;;;;;;;;;4957555;28;20024;-76
2022/12/06 01:18:54;;;;;;;87.05;55.60;;;;;;;;;;4947048;28;20075;-74
2022/12/06 01:21:20;;;;;;;92.03;59.38;;;;;;;;;;4954923;29;20051;-75
2022/12/06 01:23:47;;;;;;;95.30;59.92;;;;;;;;;;4956204;28;20031;-75
2022/12/06 01:26:17;;;;;;;97.03;63.67;;;;;;;;;;4957451;28;20031;-75
2022/12/06 01:28:44;;;;;;;93.27;56.83;;;;;;;;;;4957406;28;20027;-73
2022/12/06 01:31:10;;;;;;;85.65;51.85;;;;;;;;;;4957298;28;20083;-74
2022/12/06 01:33:36;;;;;;;85.15;54.53;;;;;;;;;;4951305;28;20028;-75
2022/12/06 01:36:02;;;;;;;73.82;50.10;;;;;;;;;;4950090;29;20082;-75
2022/12/06 01:38:28;;;;;;;71.72;48.10;;;;;;;;;;4938349;28;20054;-75
2022/12/06 01:40:54;;;;;;;73.95;47.83;;;;;;;;;;4947946;29;20182;-77
2022/12/06 01:43:37;;;;;;;69.85;48.25;;;;;;;;;;4957108;28;20058;-75
2022/12/06 01:46:26;;;;;;;63.42;42.95;;;;;;;;;;4957167;28;20031;-76
2022/12/06 01:48:54;;;;;;;67.70;43.53;;;;;;;;;;4929636;29;20040;-74
2022/12/06 01:51:20;;;;;;;67.13;44.50;;;;;;;;;;4928348;29;20047;-75
2022/12/06 01:53:47;;;;;;;65.03;43.75;;;;;;;;;;4935687;29;20512;-75
2022/12/06 01:56:13;;;;;;;66.45;42.35;;;;;;;;;;4935739;29;20032;-75
2022/12/06 01:58:40;;;;;;;66.82;44.78;;;;;;;;;;4923556;29;20031;-75
2022/12/06 02:01:09;;;;;;;65.13;44.47;;;;;;;;;;4916594;29;20028;-76
2022/12/06 02:03:36;;;;;;;65.90;43.33;;;;;;;;;;4927046;29;20055;-76
2022/12/06 02:06:06;;;;;;;64.72;44.40;;;;;;;;;;4919022;29;20466;-75
2022/12/06 02:08:32;;;;;;;82.07;54.33;;;;;;;;;;4926019;29;20054;-73
2022/12/06 02:11:00;;;;;;;70.80;48.30;;;;;;;;;;4922022;29;20103;-77
2022/12/06 02:13:26;;;;;;;75.68;50.35;;;;;;;;;;4935442;29;20055;-75
2022/12/06 02:16:04;;;;;;;68.80;45.33;;;;;;;;;;4921909;29;20122;-75
2022/12/06 02:18:49;;;;;;;72.05;47.47;;;;;;;;;;4935153;29;20028;-74
2022/12/06 02:21:21;;;;;;;63.78;41.85;;;;;;;;;;4932457;29;20190;-77
2022/12/06 02:24:06;;;;;;;69.95;44.15;;;;;;;;;;4916496;29;20119;-76
2022/12/06 02:26:52;;;;;;;61.22;40.13;;;;;;;;;;4945985;29;20111;-76
2022/12/06 02:29:21;;;;;;;58.75;39.35;;;;;;;;;;4937045;29;20031;-75
2022/12/06 02:31:57;;;;;;;53.83;38.92;;;;;;;;;;4950469;29;20055;-75
2022/12/06 02:34:23;;;;;;;56.35;38.17;;;;;;;;;;4937256;29;20110;-75
2022/12/06 02:36:55;;;;;;;59.97;39.80;;;;;;;;;;4954205;29;20027;-75
2022/12/06 02:39:26;;;;;;;53.55;36.35;;;;;;;;;;4955961;28;20082;-75
2022/12/06 02:41:52;;;;;;;55.10;36.40;;;;;;;;;;4956108;28;20031;-75
2022/12/06 02:44:38;;;;;;;53.67;36.42;;;;;;;;;;4956108;28;20082;-75
2022/12/06 02:47:06;;;;;;;51.15;36.05;;;;;;;;;;4955717;29;20026;-75
2022/12/06 02:49:34;;;;;;;47.28;32.97;;;;;;;;;;4944826;28;20536;-74
2022/12/06 02:52:01;;;;;;;51.53;34.78;;;;;;;;;;4953059;28;20063;-76
2022/12/06 02:54:28;;;;;;;52.47;34.88;;;;;;;;;;4955826;28;20019;-75
2022/12/06 02:56:54;;;;;;;51.05;34.33;;;;;;;;;;4955766;28;20038;-75
2022/12/06 02:59:20;;;;;;;51.63;35.85;;;;;;;;;;4938174;28;20079;-74
2022/12/06 03:01:52;;;;;;;51.35;37.75;;;;;;;;;;4946500;29;20033;-75
2022/12/06 03:04:18;;;;;;;54.22;35.58;;;;;;;;;;4955416;28;20027;-74
2022/12/06 03:07:02;;;;;;;57.70;38.28;;;;;;;;;;4955493;28;20077;-73
2022/12/06 03:09:48;;;;;;;60.92;41.03;;;;;;;;;;4955467;28;20018;-76
2022/12/06 03:12:14;;;;;;;66.53;43.00;;;;;;;;;;4955436;28;20118;-75
2022/12/06 03:14:44;;;;;;;60.08;39.97;;;;;;;;;;4942420;28;20055;-74
2022/12/06 03:17:22;;;;;;;56.65;39.25;;;;;;;;;;4955294;28;20024;-75
2022/12/06 03:19:54;;;;;;;71.35;45.67;;;;;;;;;;4955279;28;20039;-75
2022/12/06 03:22:49;;;;;;;62.30;42.40;;;;;;;;;;4955399;28;20055;-75
2022/12/06 03:25:16;;;;;;;59.35;38.97;;;;;;;;;;4934058;29;20497;-73
2022/12/06 03:27:43;;;;;;;66.90;42.72;;;;;;;;;;4920832;29;20032;-76
2022/12/06 03:30:10;;;;;;;67.32;43.17;;;;;;;;;;4928393;29;20497;-77
2022/12/06 03:32:37;;;;;;;61.45;42.10;;;;;;;;;;4926827;29;20119;-76
2022/12/06 03:35:07;;;;;;;67.47;43.45;;;;;;;;;;4933884;29;20027;-74
2022/12/06 03:37:35;;;;;;;60.25;39.05;;;;;;;;;;4933883;29;20035;-73
2022/12/06 03:40:09;;;;;;;65.20;42.17;;;;;;;;;;4930778;29;20035;-74
2022/12/06 03:42:36;;;;;;;60.90;40.38;;;;;;;;;;4924704;29;20039;-75
2022/12/06 03:45:03;;;;;;;61.72;41.53;;;;;;;;;;4920472;29;20036;-77
2022/12/06 03:47:32;;;;;;;63.58;41.03;;;;;;;;;;4925100;29;20574;-75
2022/12/06 03:50:00;;;;;;;55.45;37.30;;;;;;;;;;4927830;29;20446;-74
2022/12/06 03:52:28;;;;;;;54.45;33.03;;;;;;;;;;4914818;29;20502;-76
2022/12/06 03:54:54;;;;;;;51.83;33.83;;;;;;;;;;4927719;29;20474;-75
2022/12/06 03:57:20;;;;;;;45.05;31.65;;;;;;;;;;4928010;29;20032;-76
2022/12/06 03:59:46;;;;;;;40.17;29.35;;;;;;;;;;4922121;29;20488;-75
2022/12/06 04:02:13;;;;;;;40.42;27.73;;;;;;;;;;4949176;28;20291;-75
2022/12/06 04:04:39;;;;;;;44.35;28.05;;;;;;;;;;4949082;28;20028;-75
2022/12/06 04:07:05;;;;;;;45.05;31.27;;;;;;;;;;4935762;29;20075;-75
2022/12/06 04:15:00;;;;;;;48.10;32.00;;;;;;;;;;4954665;29;20598;-77
2022/12/06 04:20:11;;;;;;;47.70;32.63;;;;;;;;;;4946933;29;20067;-74
2022/12/06 04:25:22;;;;;;;51.72;34.05;;;;;;;;;;4954674;29;20114;-75
2022/12/06 04:38:46;;;;;;;50.70;35.08;;;;;;;;;;4954521;29;20036;-75
2022/12/06 04:43:40;;;;;;;52.17;35.50;;;;;;;;;;4942000;28;20071;-76
2022/12/06 04:44:05;;;;;;;46.15;35.28;;;;;;;;;;4943340;29;20122;-75
2022/12/06 04:46:32;;;;;;;48.97;31.58;;;;;;;;;;4954444;28;20485;-75
2022/12/06 04:48:58;;;;;;;40.78;29.88;;;;;;;;;;4954404;28;20027;-75
2022/12/06 04:51:24;;;;;;;43.65;29.92;;;;;;;;;;4954707;28;20078;-74
2022/12/06 04:53:50;;;;;;;50.72;30.38;;;;;;;;;;4954475;28;20029;-74
2022/12/06 04:56:16;;;;;;;42.03;29.63;;;;;;;;;;4954869;28;20023;-74
2022/12/06 04:58:43;;;;;;;48.40;30.70;;;;;;;;;;4941772;28;20024;-77
2022/12/06 05:01:09;;;;;;;41.08;28.55;;;;;;;;;;4953530;29;20023;-76
2022/12/06 05:03:35;;;;;;;53.47;34.67;;;;;;;;;;4954282;28;20477;-74
2022/12/06 05:06:01;;;;;;;58.08;36.92;;;;;;;;;;4951152;28;20032;-75
2022/12/06 05:08:27;;;;;;;47.85;33.70;;;;;;;;;;4944441;29;20441;-75
2022/12/06 05:10:53;;;;;;;50.40;35.10;;;;;;;;;;4940883;28;20032;-75
2022/12/06 05:13:20;;;;;;;58.65;39.13;;;;;;;;;;4947086;28;20174;-75
2022/12/06 05:15:52;;;;;;;54.92;36.45;;;;;;;;;;4951089;29;20070;-75
2022/12/06 05:18:18;;;;;;;54.10;37.00;;;;;;;;;;4957509;28;20035;-75
2022/12/06 05:20:44;;;;;;;50.90;36.47;;;;;;;;;;4957438;28;20047;-75
2022/12/06 05:23:10;;;;;;;66.90;43.47;;;;;;;;;;4943678;28;20030;-75
2022/12/06 05:25:36;;;;;;;63.75;44.25;;;;;;;;;;4947290;28;20143;-76
2022/12/06 05:28:02;;;;;;;77.88;49.90;;;;;;;;;;4940814;29;20032;-77
2022/12/06 05:30:28;;;;;;;73.15;48.78;;;;;;;;;;4949610;28;20438;-75
2022/12/06 05:32:54;;;;;;;77.95;51.22;;;;;;;;;;4952320;29;20113;-74
2022/12/06 05:35:25;;;;;;;76.78;52.70;;;;;;;;;;4950905;28;20378;-75
2022/12/06 05:37:51;;;;;;;77.10;53.38;;;;;;;;;;4950718;29;20577;-77
2022/12/06 05:40:17;;;;;;;70.20;44.38;;;;;;;;;;4938471;28;20367;-75
2022/12/06 05:42:44;;;;;;;60.75;43.45;;;;;;;;;;4948896;29;20023;-73
2022/12/06 05:45:10;;;;;;;70.57;45.03;;;;;;;;;;4957294;28;20031;-74
2022/12/06 05:47:36;;;;;;;62.03;43.75;;;;;;;;;;4957081;28;20031;-76
2022/12/06 05:50:04;;;;;;;70.85;45.72;;;;;;;;;;4943383;28;20043;-75
2022/12/06 05:52:30;;;;;;;72.25;45.55;;;;;;;;;;4956650;28;20393;-75
2022/12/06 05:54:56;;;;;;;76.32;53.03;;;;;;;;;;4956833;28;20090;-73
2022/12/06 05:57:22;;;;;;;91.30;57.35;;;;;;;;;;4927413;29;20031;-74
2022/12/06 05:59:48;;;;;;;110.00;69.85;;;;;;;;;;4944413;29;20016;-74
2022/12/06 06:02:14;;;;;;;116.15;74.55;;;;;;;;;;4943169;28;20111;-73
2022/12/06 06:04:40;;;;;;;104.93;69.38;;;;;;;;;;4943591;29;20023;-74
2022/12/06 06:07:06;;;;;;;75.18;51.67;;;;;;;;;;4956550;28;20027;-74
2022/12/06 06:09:32;;;;;;;89.78;60.60;;;;;;;;;;4956857;28;20049;-75
2022/12/06 06:11:58;;;;;;;91.75;61.33;;;;;;;;;;4956713;28;20035;-75
2022/12/06 06:14:24;;;;;;;99.03;60.88;;;;;;;;;;4954230;28;20434;-74
2022/12/06 06:16:51;;;;;;;84.32;55.25;;;;;;;;;;4937456;29;20359;-76
2022/12/06 06:19:17;;;;;;;91.15;57.67;;;;;;;;;;4950828;29;20035;-74
2022/12/06 06:21:43;;;;;;;108.95;68.75;;;;;;;;;;4955611;28;20058;-75
2022/12/06 06:24:09;;;;;;;115.85;74.43;;;;;;;;;;4943284;28;20442;-75
2022/12/06 06:26:35;;;;;;;116.03;73.90;;;;;;;;;;4937005;29;20106;-74
2022/12/06 06:29:01;;;;;;;141.57;87.82;;;;;;;;;;4947457;29;20031;-75
2022/12/06 06:31:27;;;;;;;131.38;91.93;;;;;;;;;;4956033;28;20028;-75
2022/12/06 06:33:53;;;;;;;147.05;97.97;;;;;;;;;;4956073;28;20038;-75
2022/12/06 06:36:19;;;;;;;142.50;98.13;;;;;;;;;;4955301;28;20034;-75
2022/12/06 06:38:45;;;;;;;160.52;107.25;;;;;;;;;;4942788;29;20045;-75
2022/12/06 06:41:11;;;;;;;146.02;96.93;;;;;;;;;;4956255;28;20027;-75
2022/12/06 06:43:37;;;;;;;136.30;94.78;;;;;;;;;;4951279;28;20027;-76
2022/12/06 06:46:05;;;;;;;146.25;97.57;;;;;;;;;;4947159;29;20486;-75
2022/12/06 06:48:34;;;;;;;145.25;90.43;;;;;;;;;;4955759;28;20027;-76
2022/12/06 06:51:03;;;;;;;108.93;77.80;;;;;;;;;;4955516;28;20035;-75
2022/12/06 06:53:30;;;;;;;122.28;83.72;;;;;;;;;;4952524;28;20039;-77
2022/12/06 06:55:56;;;;;;;108.07;74.50;;;;;;;;;;4943429;29;20027;-77
2022/12/06 06:58:22;;;;;;;111.85;73.32;;;;;;;;;;4945679;28;20039;-74
2022/12/06 07:00:56;;;;;;;112.22;71.55;;;;;;;;;;4951862;29;20030;-75
2022/12/06 07:03:22;;;;;;;118.72;77.75;;;;;;;;;;4946791;28;20482;-74
2022/12/06 07:05:52;;;;;;;127.03;83.75;;;;;;;;;;4949592;29;20066;-75
2022/12/06 07:08:18;;;;;;;143.73;97.05;;;;;;;;;;4944101;29;20490;-74
2022/12/06 07:10:47;;;;;;;167.00;112.20;;;;;;;;;;4955386;28;20027;-74
2022/12/06 07:13:14;;;;;;;174.20;121.93;;;;;;;;;;4955662;28;20039;-75
2022/12/06 07:15:41;;;;;;;202.30;139.57;;;;;;;;;;4955416;28;20111;-74
2022/12/06 07:18:07;;;;;;;197.40;136.40;;;;;;;;;;4955256;28;20020;-74
2022/12/06 07:20:33;;;;;;;189.23;132.52;;;;;;;;;;4944560;28;20155;-75
2022/12/06 07:22:59;;;;;;;184.85;135.48;;;;;;;;;;4952340;29;20089;-75
2022/12/06 07:25:25;;;;;;;157.60;117.35;;;;;;;;;;4955355;28;20034;-75
2022/12/06 07:27:51;;;;;;;182.25;134.63;;;;;;;;;;4955032;28;20031;-75
2022/12/06 07:30:17;;;;;;;160.10;121.90;;;;;;;;;;4948409;28;20032;-74
2022/12/06 07:32:43;;;;;;;157.15;110.68;;;;;;;;;;4948490;29;20053;-74
2022/12/06 07:35:09;;;;;;;155.57;114.05;;;;;;;;;;4955044;28;20028;-75
2022/12/06 07:37:35;;;;;;;131.77;94.57;;;;;;;;;;4954425;28;20062;-75
2022/12/06 07:40:01;;;;;;;113.95;80.30;;;;;;;;;;4954917;28;20019;-75
2022/12/06 07:45:14;;;;;;;114.68;82.28;;;;;;;;;;4953641;29;20075;-76
2022/12/06 07:47:41;;;;;;;140.13;99.68;;;;;;;;;;4955110;28;20393;-74
2022/12/06 07:50:17;;;;;;;138.35;100.45;;;;;;;;;;4952436;28;20031;-75
2022/12/06 07:52:44;;;;;;;151.02;104.00;;;;;;;;;;4943949;29;20050;-74
2022/12/06 07:55:11;;;;;;;154.82;106.43;;;;;;;;;;4954654;28;20362;-75
2022/12/06 07:57:37;;;;;;;145.13;102.97;;;;;;;;;;4950812;28;20027;-75
2022/12/06 08:00:05;;;;;;;156.38;111.15;;;;;;;;;;4945562;29;20019;-75
2022/12/06 08:02:31;;;;;;;160.93;110.68;;;;;;;;;;4954638;28;20054;-74
2022/12/06 08:04:57;;;;;;;140.52;101.25;;;;;;;;;;4946684;28;20024;-76
2022/12/06 08:07:24;;;;;;;136.70;99.20;;;;;;;;;;4949171;29;20493;-75
2022/12/06 08:09:52;;;;;;;130.00;92.38;;;;;;;;;;4948534;28;20078;-75
2022/12/06 08:12:18;;;;;;;124.13;89.57;;;;;;;;;;4947919;29;20032;-75
2022/12/06 08:14:45;;;;;;;131.32;90.82;;;;;;;;;;4954432;28;20019;-75
2022/12/06 08:17:11;;;;;;;133.73;96.50;;;;;;;;;;4954404;28;20117;-76
2022/12/06 08:19:37;;;;;;;142.77;103.50;;;;;;;;;;4951097;28;20500;-74
2022/12/06 08:22:03;;;;;;;163.45;110.75;;;;;;;;;;4944167;29;20047;-76
2022/12/06 08:24:29;;;;;;;159.40;115.57;;;;;;;;;;4939896;28;20032;-77
2022/12/06 08:26:56;;;;;;;169.63;120.65;;;;;;;;;;4954614;28;20019;-76
2022/12/06 08:29:22;;;;;;;171.98;124.10;;;;;;;;;;4941590;28;20031;-75
2022/12/06 08:31:48;;;;;;;155.57;115.32;;;;;;;;;;4935092;29;20445;-77
2022/12/06 08:34:15;;;;;;;159.75;118.75;;;;;;;;;;4946458;29;20028;-75
2022/12/06 08:36:41;;;;;;;168.68;121.97;;;;;;;;;;4941201;28;20373;-76
2022/12/06 08:39:07;;;;;;;165.48;123.03;;;;;;;;;;4954306;28;20049;-74
2022/12/06 08:44:18;;;;;;;199.68;147.50;;;;;;;;;;4954499;29;20058;-74
2022/12/06 08:46:45;;;;;;;225.65;157.60;;;;;;;;;;4940751;28;20397;-76
2022/12/06 08:49:11;;;;;;;222.20;156.68;;;;;;;;;;4953936;28;20050;-76
2022/12/06 08:51:38;;;;;;;199.05;152.75;;;;;;;;;;4957598;28;20370;-76
2022/12/06 08:54:05;;;;;;;196.57;149.18;;;;;;;;;;4957850;28;20030;-76
2022/12/06 08:56:31;;;;;;;233.55;164.68;;;;;;;;;;4957990;28;20505;-75
2022/12/06 08:58:57;;;;;;;211.68;155.25;;;;;;;;;;4939423;28;20028;-76
2022/12/06 09:01:25;;;;;;;206.27;149.45;;;;;;;;;;4938468;29;20028;-76
2022/12/06 09:03:51;;;;;;;203.82;149.88;;;;;;;;;;4938102;29;20027;-75
2022/12/06 09:06:18;;;;;;;210.73;153.20;;;;;;;;;;4952085;29;20024;-75
2022/12/06 09:08:44;;;;;;;168.50;127.47;;;;;;;;;;4949744;29;20484;-76
2022/12/06 09:11:10;;;;;;;120.72;88.90;;;;;;;;;;4957553;28;20024;-76
2022/12/06 09:13:37;;;;;;;107.85;79.20;;;;;;;;;;4947546;28;20051;-76
2022/12/06 09:16:10;;;;;;;105.32;76.65;;;;;;;;;;4939255;29;20023;-76
2022/12/06 09:18:37;;;;;;;112.40;80.28;;;;;;;;;;4949040;28;20024;-74
2022/12/06 09:21:06;;;;;;;131.35;89.57;;;;;;;;;;4952575;29;20062;-76
2022/12/06 09:23:33;;;;;;;156.75;112.50;;;;;;;;;;4950268;28;20456;-77
2022/12/06 09:25:59;;;;;;;183.68;134.32;;;;;;;;;;4938367;29;20035;-77
2022/12/06 09:28:25;;;;;;;210.95;151.90;;;;;;;;;;4942700;28;20035;-76
2022/12/06 09:30:51;;;;;;;210.20;157.45;;;;;;;;;;4946024;28;20031;-77
2022/12/06 09:33:18;;;;;;;206.70;157.90;;;;;;;;;;4955296;29;20031;-77
2022/12/06 09:35:44;;;;;;;214.02;165.40;;;;;;;;;;4957254;28;20107;-77
2022/12/06 09:38:10;;;;;;;214.45;165.02;;;;;;;;;;4955198;28;20395;-76
2022/12/06 09:40:46;;;;;;;217.25;167.70;;;;;;;;;;4945521;29;20027;-75
2022/12/06 09:43:26;;;;;;;239.65;178.13;;;;;;;;;;4942260;28;20106;-76
2022/12/06 09:45:55;;;;;;;232.25;180.45;;;;;;;;;;4956264;28;20466;-76
2022/12/06 09:48:41;;;;;;;248.90;185.73;;;;;;;;;;4956906;28;20185;-76
2022/12/06 09:51:10;;;;;;;245.70;190.38;;;;;;;;;;4947290;28;20039;-76
2022/12/06 09:53:55;;;;;;;251.18;201.13;;;;;;;;;;4953846;29;20401;-76
2022/12/06 09:56:35;;;;;;;242.88;191.27;;;;;;;;;;4944528;28;20032;-77
2022/12/06 09:59:01;;;;;;;248.77;197.18;;;;;;;;;;4942711;29;20031;-76
2022/12/06 10:01:41;;;;;;;204.57;154.45;;;;;;;;;;4949119;28;20038;-76
2022/12/06 10:04:25;;;;;;;136.63;102.15;;;;;;;;;;4951470;29;20034;-77
2022/12/06 10:07:15;;;;;;;114.32;80.95;;;;;;;;;;4947032;29;20449;-76
2022/12/06 10:09:41;;;;;;;102.03;66.18;;;;;;;;;;4929924;29;20040;-77
2022/12/06 10:12:17;;;;;;;60.67;43.70;;;;;;;;;;4916370;29;20044;-75
2022/12/06 10:14:46;;;;;;;55.78;38.22;;;;;;;;;;4916338;29;20044;-76
2022/12/06 10:17:12;;;;;;;44.00;32.38;;;;;;;;;;4916139;29;20059;-77
2022/12/06 10:19:47;;;;;;;45.78;32.70;;;;;;;;;;4932790;29;20032;-78
2022/12/06 10:22:31;;;;;;;43.63;31.75;;;;;;;;;;4935067;29;20056;-76
2022/12/06 10:25:12;;;;;;;59.15;34.90;;;;;;;;;;4916650;29;20028;-76
2022/12/06 10:27:39;;;;;;;65.63;43.95;;;;;;;;;;4928668;29;20031;-78
2022/12/06 10:30:10;;;;;;;408.65;88.35;;;;;;;;;;4935037;29;20161;-74
